Language selection

My Weather Profile Weather Topics  | 

Lake Nipigon: Past 24 Hour Conditions

 

Welcome Island

11:00 PM EST 26 January 2021
Disclaimer

This table is a summary of hourly weather conditions for the past 24 hours.
Please note that these observations might not always be representative of weather conditions over their associated marine area.

Date / Time
(EST)
Wind(knots) Conditions Visibility(km) Pressure(kPa) Air tempC) Relative humidity(%) Dew pointC) Wind Chill
26 January 2021
23:00 NNW 10 N/A N/A 102.9 -16 73 -20 -25
22:00 NNW 12 N/A N/A 102.8 -16 73 -19 -25
21:00 N 12 N/A N/A 102.8 -15 74 -19 -25
20:00 NW 12 gust 17 N/A N/A 102.7 -15 73 -19 -25
19:00 NW 16 N/A N/A 102.7 -15 73 -18 -25
18:00 NNW 14 N/A N/A 102.6 -14 72 -18 -24
17:00 NW 14 gust 19 N/A N/A 102.5 -13 71 -18 -23
16:00 NNW 8 N/A N/A 102.5 -12 64 -17 -19
15:00 NNW 8 N/A N/A 102.4 -12 66 -17 -19
14:00 NW 6 N/A N/A 102.4 -13 64 -18 -19
13:00 NNW 9 N/A N/A 102.4 -13 64 -18 -21
12:00 N 8 N/A N/A 102.5 -14 68 -18 -21
11:00 N 10 gust 16 N/A N/A 102.5 -15 70 -19 -24
10:00 N 12 gust 17 N/A N/A 102.5 -15 76 -19 -25
9:00 WNW 12 gust 18 N/A N/A 102.5 -17 83 -19 -27
8:00 N 9 N/A N/A 102.4 -16 83 -18 -24
7:00 NNW 11 gust 17 N/A N/A 102.4 -16 83 -18 -26
6:00 N 15 N/A N/A 102.4 -16 84 -18 -26
5:00 NNE 9 N/A N/A 102.4 -16 83 -18 -24
4:00 NW 7 N/A N/A 102.4 -16 86 -18 -24
3:00 N 12 gust 18 N/A N/A 102.4 -16 83 -18 -25
2:00 N 11 gust 16 N/A N/A 102.4 -15 83 -18 -25
1:00 NNE 11 N/A N/A 102.5 -15 78 -18 -24
0:00 NNW 10 N/A N/A 102.5 -15 79 -18 -24
25 January 2021
23:00 NNW 13 N/A N/A 102.5 -14 81 -17 -24

Zoom-in to make a selection

Map of Great Lakes - Lake Superior marine weather areas Mid Superior - 45001 East Superior - 45004 West Superior - 45006 Slate Island - 45136 Lake Of the Woods - 45148 Kenora Airport Royal Island Armstrong Airport Caribou Island Marathon Airport Pukaskwa National Park Thunder Bay Airport Welcome Island Little Flatland Island Sault Ste. Marie Airport Wawa Airport
Legend:
buoy Buoy
land station Land Station

Great Lakes - Lake Superior Area

Another Region

What we are doing

Features

Need to travel Alberta Highway 93?

Go prepared with Highway 93 forecasts. Highway regions are available in the Alberta text forecast bulletin between Lake Louise and Jasper. (Photo by: Natalie Anderson)

Date modified: